Kirton in Lindsey, United Kingdom
Current Conditions -  °F | °C
As of 5:20 PM on Friday 24 Oct 2014 (Local Time) from EGNJ Reporting Station
Broken Clouds Broken Clouds  
Wind Chill: 59°   Ceiling: 2300
Heat Index: 59°   Visibility: 6mi
Dew Point: 52°   Wind: 5mph
Humidity: 77%   Direction: 240°WSW
Pressure: 29.83"   Gusts: NA
Location:  53.48°N, 0.6°W
Report Text: EGNJ 241620Z 24004KT 9999 FEW016 BKN023 15/11 Q1010
Loading
Personal Weather Stations






























Interactive Weather Map
Tropical Storm Tracking
New forecast layout! Learn more

10-Day Weather Forecast

Advertisements
Track Severe Weather on mobile